createdAt,value
2018-12-22T00:00:13.021Z,72.61
2018-12-22T00:01:13.039Z,72.28
2018-12-22T00:02:13.006Z,72.41
2018-12-22T00:03:13.013Z,72.52
2018-12-22T00:04:13.066Z,73.10
2018-12-22T00:05:12.971Z,72.48
2018-12-22T00:06:12.965Z,72.89
2018-12-22T00:07:12.941Z,72.89
2018-12-22T00:08:12.950Z,72.72
2018-12-22T00:09:12.940Z,71.80
2018-12-22T00:10:12.907Z,71.80
2018-12-22T00:11:12.912Z,72.07
2018-12-22T00:12:12.897Z,72.41
2018-12-22T00:13:12.874Z,72.41
2018-12-22T00:14:12.921Z,71.97
2018-12-22T00:15:12.869Z,72.31
2018-12-22T00:16:12.861Z,71.39
2018-12-22T00:17:12.920Z,71.18
2018-12-22T00:18:12.837Z,70.94
2018-12-22T00:19:12.844Z,70.98
2018-12-22T00:20:12.820Z,70.06
2018-12-22T00:21:12.811Z,70.57
2018-12-22T00:22:12.784Z,70.03
2018-12-22T00:23:12.773Z,70.67
2018-12-22T00:24:12.768Z,69.65
2018-12-22T00:25:12.773Z,69.82
2018-12-22T00:26:12.743Z,70.36
2018-12-22T00:27:12.720Z,70.26
2018-12-22T00:28:12.765Z,69.54
2018-12-22T00:29:12.708Z,69.34
2018-12-22T00:30:12.713Z,69.00
2018-12-22T00:31:12.692Z,69.44
2018-12-22T00:32:12.684Z,69.24
2018-12-22T00:33:12.666Z,68.32
2018-12-22T00:34:12.658Z,67.90
2018-12-22T00:35:12.680Z,68.52
2018-12-22T00:36:12.677Z,69.00
2018-12-22T00:37:12.616Z,68.18
2018-12-22T00:38:12.618Z,68.21
2018-12-22T00:39:12.604Z,68.52
2018-12-22T00:40:12.631Z,68.62
2018-12-22T00:41:12.607Z,68.90
2018-12-22T00:42:12.562Z,68.32
2018-12-22T00:43:12.633Z,67.80
2018-12-22T00:44:12.542Z,66.67
2018-12-22T00:45:12.529Z,67.08
2018-12-22T00:46:12.541Z,67.67
2018-12-22T00:47:12.510Z,67.67
2018-12-22T00:48:12.523Z,67.87
2018-12-22T00:49:12.483Z,67.87
2018-12-22T00:50:12.473Z,68.73
2018-12-22T00:51:12.502Z,68.11
2018-12-22T00:52:12.451Z,68.28
2018-12-22T00:53:12.439Z,67.97
2018-12-22T00:54:12.426Z,68.11
2018-12-22T00:55:12.440Z,67.29
2018-12-22T00:56:12.407Z,67.67
2018-12-22T00:57:12.452Z,67.46
2018-12-22T00:58:12.381Z,67.67
2018-12-22T00:59:12.376Z,67.05
2018-12-22T01:00:13.761Z,67.46
2018-12-22T01:01:12.383Z,67.46
2018-12-22T01:02:12.371Z,66.95
2018-12-22T01:03:12.331Z,66.85
2018-12-22T01:04:12.338Z,66.64
2018-12-22T01:05:12.307Z,66.54
2018-12-22T01:06:12.300Z,66.34
2018-12-22T01:07:12.317Z,66.75
2018-12-22T01:08:12.277Z,67.67
2018-12-22T01:09:12.270Z,67.57
2018-12-22T01:10:12.280Z,67.16
2018-12-22T01:11:12.252Z,67.05
2018-12-22T01:12:12.266Z,67.57
2018-12-22T01:13:12.250Z,66.44
2018-12-22T01:14:12.209Z,67.67
2018-12-22T01:15:12.200Z,66.85
2018-12-22T01:16:12.271Z,67.16
2018-12-22T01:17:12.203Z,67.16
2018-12-22T01:18:12.182Z,67.67
2018-12-22T01:19:12.154Z,66.95
2018-12-22T01:20:12.180Z,67.46
2018-12-22T01:21:12.140Z,67.05
2018-12-22T01:22:12.119Z,67.36
2018-12-22T01:23:12.151Z,66.54
2018-12-22T01:24:12.097Z,66.95
2018-12-22T01:25:12.099Z,67.87
2018-12-22T01:26:12.077Z,67.77
2018-12-22T01:27:12.066Z,67.05
2018-12-22T01:28:12.059Z,67.70
2018-12-22T01:29:12.071Z,67.67
2018-12-22T01:30:12.038Z,65.93
2018-12-22T01:31:12.038Z,67.05
2018-12-22T01:32:12.030Z,67.46
2018-12-22T01:33:12.003Z,66.64
2018-12-22T01:34:12.015Z,66.64
2018-12-22T01:35:11.983Z,66.64
2018-12-22T01:36:11.968Z,65.52
2018-12-22T01:37:11.954Z,66.34
2018-12-22T01:38:11.947Z,66.44
2018-12-22T01:39:11.969Z,66.64
2018-12-22T01:40:11.946Z,66.54
2018-12-22T01:41:11.930Z,64.90
2018-12-22T01:42:11.912Z,65.80
2018-12-22T01:43:11.889Z,64.90
2018-12-22T01:44:11.886Z,66.00
2018-12-22T01:45:11.899Z,66.82
2018-12-22T01:46:11.856Z,66.85
2018-12-22T01:47:11.844Z,66.75
2018-12-22T01:48:11.836Z,66.44
2018-12-22T01:49:11.824Z,65.93
2018-12-22T01:50:11.902Z,66.95
2018-12-22T01:51:11.799Z,67.36
2018-12-22T01:52:11.787Z,67.87
2018-12-22T01:53:11.774Z,67.57
2018-12-22T01:54:11.768Z,67.16
2018-12-22T01:55:11.792Z,68.11
2018-12-22T01:56:11.751Z,68.41
2018-12-22T01:57:11.738Z,68.52
2018-12-22T01:58:11.757Z,68.59
2018-12-22T01:59:11.713Z,69.54
2018-12-22T02:00:11.758Z,69.85
2018-12-22T02:01:11.688Z,69.65
2018-12-22T02:02:11.679Z,70.57
2018-12-22T02:03:11.669Z,72.41
2018-12-22T02:04:11.689Z,72.20
2018-12-22T02:05:11.645Z,72.52
2018-12-22T02:06:11.668Z,72.75
2018-12-22T02:07:11.621Z,73.27
2018-12-22T02:08:11.621Z,73.57
2018-12-22T02:09:11.609Z,73.57
2018-12-22T02:10:11.597Z,73.91
2018-12-22T02:11:11.864Z,74.63
2018-12-22T02:12:11.564Z,74.53
2018-12-22T02:13:11.561Z,75.56
2018-12-22T02:14:11.546Z,75.76
2018-12-22T02:15:11.542Z,76.17
2018-12-22T02:16:11.524Z,75.66
2018-12-22T02:17:11.532Z,75.56
2018-12-22T02:18:11.503Z,75.45
2018-12-22T02:19:11.493Z,76.07
2018-12-22T02:20:11.498Z,75.66
2018-12-22T02:21:11.470Z,76.17
2018-12-22T02:22:11.493Z,75.59
2018-12-22T02:23:11.448Z,75.59
2018-12-22T02:24:11.436Z,75.66
2018-12-22T02:25:11.442Z,76.27
2018-12-22T02:26:11.417Z,76.20
2018-12-22T02:27:11.428Z,76.58
2018-12-22T02:28:11.405Z,76.62
2018-12-22T02:29:11.426Z,77.74
2018-12-22T02:30:11.373Z,76.92
2018-12-22T02:31:11.376Z,76.92
2018-12-22T02:32:11.384Z,77.33
2018-12-22T02:33:11.340Z,77.74
2018-12-22T02:34:11.338Z,78.05
2018-12-22T02:35:11.316Z,78.16
2018-12-22T02:36:11.343Z,78.36
2018-12-22T02:37:11.333Z,77.74
2018-12-22T02:38:11.311Z,78.16
2018-12-22T02:39:11.277Z,78.46
2018-12-22T02:40:11.286Z,79.69
2018-12-22T02:41:11.250Z,79.69
2018-12-22T02:42:11.263Z,79.73
2018-12-22T02:43:11.251Z,79.83
2018-12-22T02:44:11.240Z,79.63
2018-12-22T02:45:11.213Z,80.24
2018-12-22T02:46:11.210Z,79.83
2018-12-22T02:47:11.213Z,79.97
2018-12-22T02:48:11.204Z,79.63
2018-12-22T02:49:11.165Z,79.42
2018-12-22T02:50:11.158Z,78.91
2018-12-22T02:51:11.135Z,78.91
2018-12-22T02:52:11.137Z,78.91
2018-12-22T02:53:11.145Z,79.52
2018-12-22T02:54:11.151Z,78.91
2018-12-22T02:55:11.130Z,79.52
2018-12-22T02:56:11.085Z,79.32
2018-12-22T02:57:11.068Z,79.63
2018-12-22T02:58:11.056Z,79.63
2018-12-22T02:59:11.085Z,79.63
2018-12-22T03:00:11.074Z,79.63
2018-12-22T03:01:11.024Z,79.42
2018-12-22T03:02:11.030Z,79.83
2018-12-22T03:03:11.021Z,79.32
2018-12-22T03:04:11.040Z,79.73
2018-12-22T03:05:10.998Z,79.63
2018-12-22T03:06:10.986Z,79.93
2018-12-22T03:07:10.956Z,80.65
2018-12-22T03:08:10.949Z,80.69
2018-12-22T03:09:10.968Z,80.58
2018-12-22T03:10:10.936Z,81.00
2018-12-22T03:11:10.914Z,80.07
2018-12-22T03:12:10.922Z,80.90
2018-12-22T03:13:10.898Z,80.18
2018-12-22T03:14:10.880Z,80.38
2018-12-22T03:15:10.901Z,79.87
2018-12-22T03:16:10.861Z,79.83
2018-12-22T03:17:10.863Z,79.52
2018-12-22T03:18:10.845Z,81.06
2018-12-22T03:19:10.873Z,81.48
2018-12-22T03:20:10.825Z,81.10
2018-12-22T03:21:10.809Z,81.82
2018-12-22T03:22:10.810Z,82.84
2018-12-22T03:23:10.795Z,83.77
2018-12-22T03:24:10.823Z,83.87
2018-12-22T03:25:10.764Z,84.08
2018-12-22T03:26:10.758Z,84.39
2018-12-22T03:27:10.751Z,84.22
2018-12-22T03:28:10.729Z,84.84
2018-12-22T03:29:15.549Z,84.63
2018-12-22T03:30:11.737Z,85.14
2018-12-22T03:31:10.703Z,84.63
2018-12-22T03:32:10.702Z,85.46
2018-12-22T03:33:10.714Z,85.35
2018-12-22T03:34:10.710Z,86.07
2018-12-22T03:35:10.701Z,86.07
2018-12-22T03:36:10.640Z,86.17
2018-12-22T03:37:10.637Z,85.90
2018-12-22T03:38:10.627Z,86.42
2018-12-22T03:39:10.609Z,86.58
2018-12-22T03:40:10.640Z,86.72
2018-12-22T03:41:10.586Z,86.42
2018-12-22T03:42:10.584Z,87.13
2018-12-22T03:43:10.578Z,87.34
2018-12-22T03:44:10.651Z,87.55
2018-12-22T03:45:10.578Z,87.24
2018-12-22T03:46:10.557Z,86.93
2018-12-22T03:47:10.534Z,86.42
2018-12-22T03:48:10.508Z,86.72
2018-12-22T03:49:10.520Z,86.42
2018-12-22T03:50:10.487Z,86.62
2018-12-22T03:51:10.505Z,86.00
2018-12-22T03:52:10.478Z,85.90
2018-12-22T03:53:10.449Z,86.21
2018-12-22T03:54:10.455Z,86.62
2018-12-22T03:55:10.428Z,86.62
2018-12-22T03:56:10.458Z,86.66
2018-12-22T03:57:10.416Z,87.28
2018-12-22T03:58:10.404Z,86.46
2018-12-22T03:59:10.383Z,86.15
2018-12-22T04:00:10.383Z,86.97
2018-12-22T04:01:10.382Z,86.35
2018-12-22T04:02:10.388Z,86.25
2018-12-22T04:03:11.949Z,86.77
2018-12-22T04:04:10.354Z,86.42
2018-12-22T04:05:10.317Z,87.28
2018-12-22T04:06:10.306Z,87.04
2018-12-22T04:07:10.321Z,86.21
2018-12-22T04:08:10.289Z,86.46
2018-12-22T04:09:10.280Z,86.21
2018-12-22T04:10:10.271Z,86.42
2018-12-22T04:11:10.257Z,86.21
2018-12-22T04:12:10.274Z,86.77
2018-12-22T04:13:10.237Z,86.56
2018-12-22T04:14:10.221Z,85.70
2018-12-22T04:15:10.217Z,84.77
2018-12-22T04:16:10.194Z,85.39
2018-12-22T04:17:10.195Z,85.80
2018-12-22T04:18:10.243Z,85.90
2018-12-22T04:19:10.169Z,85.39
2018-12-22T04:20:10.149Z,84.77
2018-12-22T04:21:10.156Z,84.77
2018-12-22T04:22:10.180Z,84.56
2018-12-22T04:23:10.149Z,84.67
2018-12-22T04:24:10.114Z,84.16
2018-12-22T04:25:10.102Z,84.26
2018-12-22T04:26:10.097Z,84.32
2018-12-22T04:27:10.092Z,84.47
2018-12-22T04:28:10.099Z,84.77
2018-12-22T04:29:10.058Z,84.56
2018-12-22T04:30:10.040Z,84.63
2018-12-22T04:31:10.031Z,84.56
2018-12-22T04:32:10.040Z,85.66
2018-12-22T04:33:10.017Z,86.11
2018-12-22T04:34:10.078Z,85.18
2018-12-22T04:35:09.983Z,86.00
2018-12-22T04:36:09.981Z,85.55
2018-12-22T04:37:09.965Z,86.00
2018-12-22T04:38:09.951Z,86.62
2018-12-22T04:39:09.970Z,86.32
2018-12-22T04:40:09.932Z,86.52
2018-12-22T04:41:09.920Z,86.32
2018-12-22T04:42:09.958Z,86.72
2018-12-22T04:43:09.900Z,86.42
2018-12-22T04:44:09.910Z,86.52
2018-12-22T04:45:09.876Z,86.32
2018-12-22T04:46:09.877Z,86.21
2018-12-22T04:47:09.865Z,86.21
2018-12-22T04:48:09.845Z,87.04
2018-12-22T04:49:09.876Z,86.21
2018-12-22T04:50:09.829Z,86.35
2018-12-22T04:51:09.805Z,86.83
2018-12-22T04:52:09.830Z,86.97
2018-12-22T04:53:09.789Z,86.87
2018-12-22T04:54:09.803Z,86.87
2018-12-22T04:55:09.808Z,86.97
2018-12-22T04:56:09.759Z,87.38
2018-12-22T04:57:09.808Z,87.34
2018-12-22T04:58:09.729Z,87.28
2018-12-22T04:59:09.721Z,87.18
2018-12-22T05:00:09.764Z,86.87
2018-12-22T05:01:09.706Z,87.38
2018-12-22T05:02:09.685Z,87.79
2018-12-22T05:03:09.680Z,87.59
2018-12-22T05:04:09.662Z,87.18
2018-12-22T05:05:09.681Z,86.35
2018-12-22T05:06:09.698Z,86.25
2018-12-22T05:07:09.659Z,86.46
2018-12-22T05:08:09.629Z,86.15
2018-12-22T05:09:09.620Z,86.77
2018-12-22T05:10:09.681Z,86.97
2018-12-22T05:11:09.622Z,86.35
2018-12-22T05:12:09.589Z,86.25
2018-12-22T05:13:09.595Z,86.21
2018-12-22T05:14:09.572Z,86.05
2018-12-22T05:15:09.543Z,86.05
2018-12-22T05:16:09.573Z,85.84
2018-12-22T05:17:09.521Z,86.56
2018-12-22T05:18:09.528Z,85.94
2018-12-22T05:19:09.515Z,86.15
2018-12-22T05:20:09.488Z,86.15
2018-12-22T05:21:09.541Z,85.74
2018-12-22T05:22:09.491Z,86.46
2018-12-22T05:23:09.452Z,86.77
2018-12-22T05:24:09.450Z,85.53
2018-12-22T05:25:09.438Z,85.94
2018-12-22T05:26:09.420Z,86.32
2018-12-22T05:27:09.439Z,86.32
2018-12-22T05:28:09.418Z,85.53
2018-12-22T05:29:09.428Z,84.77
2018-12-22T05:30:09.407Z,85.08
2018-12-22T05:31:09.371Z,85.12
2018-12-22T05:32:09.782Z,84.88
2018-12-22T05:33:09.344Z,85.39
2018-12-22T05:34:09.337Z,85.02
2018-12-22T05:35:09.352Z,85.12
2018-12-22T05:36:09.325Z,85.18
2018-12-22T05:37:09.314Z,85.63
2018-12-22T05:38:09.334Z,85.12
2018-12-22T05:39:09.279Z,84.98
2018-12-22T05:40:09.281Z,85.18
2018-12-22T05:41:09.261Z,85.28
2018-12-22T05:42:09.267Z,85.28
2018-12-22T05:43:09.257Z,84.67
2018-12-22T05:44:09.235Z,84.56
2018-12-22T05:45:09.211Z,84.36
2018-12-22T05:46:09.215Z,84.47
2018-12-22T05:47:09.208Z,84.74
2018-12-22T05:48:09.220Z,84.67
2018-12-22T05:49:09.164Z,84.77
2018-12-22T05:50:09.184Z,84.26
2018-12-22T05:51:09.150Z,84.26
2018-12-22T05:52:09.148Z,84.36
2018-12-22T05:53:09.152Z,84.67
2018-12-22T05:54:09.149Z,84.77
2018-12-22T05:55:09.118Z,84.88
2018-12-22T05:56:09.103Z,84.36
2018-12-22T05:57:09.115Z,84.56
2018-12-22T05:58:09.072Z,84.77
2018-12-22T05:59:09.104Z,84.88
2018-12-22T06:00:09.043Z,84.56
2018-12-22T06:01:09.048Z,84.77
2018-12-22T06:02:09.055Z,84.77
2018-12-22T06:03:09.021Z,84.16
2018-12-22T06:04:09.103Z,84.47
2018-12-22T06:05:08.995Z,84.77
2018-12-22T06:06:08.985Z,84.88
2018-12-22T06:07:08.965Z,84.98
2018-12-22T06:08:08.957Z,84.16
2018-12-22T06:09:09.001Z,84.36
2018-12-22T06:10:08.962Z,84.71
2018-12-22T06:11:08.953Z,84.81
2018-12-22T06:12:08.918Z,85.33
2018-12-22T06:13:08.902Z,86.05
2018-12-22T06:14:08.906Z,85.80
2018-12-22T06:15:08.903Z,86.00
2018-12-22T06:16:08.889Z,85.94
2018-12-22T06:17:08.869Z,85.28
2018-12-22T06:18:08.857Z,86.05
2018-12-22T06:19:08.846Z,86.32
2018-12-22T06:20:08.966Z,85.80
2018-12-22T06:21:08.846Z,85.70
2018-12-22T06:22:08.806Z,85.94
2018-12-22T06:23:08.791Z,86.00
2018-12-22T06:24:08.815Z,85.80
2018-12-22T06:25:08.843Z,85.80
2018-12-22T06:26:08.779Z,86.11
2018-12-22T06:27:08.770Z,85.28
2018-12-22T06:28:08.736Z,85.70
2018-12-22T06:29:08.732Z,86.11
2018-12-22T06:30:09.351Z,86.05
2018-12-22T06:31:08.745Z,86.00
2018-12-22T06:32:08.692Z,86.87
2018-12-22T06:33:08.688Z,85.60
2018-12-22T06:34:08.684Z,85.90
2018-12-22T06:35:08.657Z,86.72
2018-12-22T06:36:08.707Z,86.72
2018-12-22T06:37:08.636Z,86.52
2018-12-22T06:38:08.638Z,86.11
2018-12-22T06:39:08.638Z,86.21
2018-12-22T06:40:08.632Z,86.62
2018-12-22T06:41:08.623Z,87.04
2018-12-22T06:42:08.580Z,86.46
2018-12-22T06:43:08.572Z,86.77
2018-12-22T06:44:08.565Z,86.21
2018-12-22T06:45:08.560Z,86.93
2018-12-22T06:46:08.540Z,86.72
2018-12-22T06:47:08.547Z,86.93
2018-12-22T06:48:08.515Z,86.72
2018-12-22T06:49:08.547Z,86.52
2018-12-22T06:50:08.500Z,86.83
2018-12-22T06:51:08.517Z,86.72
2018-12-22T06:52:08.513Z,86.93
2018-12-22T06:53:08.499Z,86.93
2018-12-22T06:54:08.464Z,87.34
2018-12-22T06:55:08.440Z,87.34
2018-12-22T06:56:08.478Z,86.93
2018-12-22T06:57:08.463Z,87.24
2018-12-22T06:58:08.406Z,87.13
2018-12-22T06:59:08.433Z,86.93
2018-12-22T07:00:08.385Z,87.55
2018-12-22T07:01:08.383Z,87.34
2018-12-22T07:02:08.459Z,87.55
2018-12-22T07:03:08.383Z,87.55
2018-12-22T07:04:08.343Z,87.34
2018-12-22T07:05:08.368Z,87.65
2018-12-22T07:06:08.323Z,88.06
2018-12-22T07:07:08.313Z,87.85
2018-12-22T07:08:08.323Z,87.96
2018-12-22T07:09:08.282Z,87.85
2018-12-22T07:10:08.302Z,87.96
2018-12-22T07:11:08.338Z,87.34
2018-12-22T07:12:08.255Z,87.24
2018-12-22T07:13:08.279Z,88.06
2018-12-22T07:14:08.230Z,87.65
2018-12-22T07:15:08.222Z,87.34
2018-12-22T07:16:08.229Z,86.52
2018-12-22T07:17:08.200Z,86.83
2018-12-22T07:18:08.194Z,87.24
2018-12-22T07:19:08.219Z,87.55
2018-12-22T07:20:08.161Z,87.55
2018-12-22T07:21:08.153Z,86.93
2018-12-22T07:22:08.160Z,86.72
2018-12-22T07:23:08.128Z,86.89
2018-12-22T07:24:08.162Z,86.99
2018-12-22T07:25:08.116Z,86.89
2018-12-22T07:26:08.203Z,86.79
2018-12-22T07:27:08.088Z,86.48
2018-12-22T07:28:08.076Z,86.27
2018-12-22T07:29:08.093Z,86.38
2018-12-22T07:30:08.080Z,86.42
2018-12-22T07:31:08.039Z,85.86
2018-12-22T07:32:08.034Z,86.00
2018-12-22T07:33:08.033Z,86.21
2018-12-22T07:34:08.035Z,86.72
2018-12-22T07:35:08.022Z,86.62
2018-12-22T07:36:07.985Z,85.80
2018-12-22T07:37:07.973Z,86.21
2018-12-22T07:38:07.967Z,86.21
2018-12-22T07:39:07.952Z,85.55
2018-12-22T07:40:07.962Z,85.97
2018-12-22T07:41:07.940Z,86.17
2018-12-22T07:42:07.931Z,86.68
2018-12-22T07:43:07.908Z,86.72
2018-12-22T07:44:07.895Z,87.34
2018-12-22T07:45:07.910Z,87.04
2018-12-22T07:46:07.873Z,86.83
2018-12-22T07:47:07.904Z,87.24
2018-12-22T07:48:07.884Z,87.49
2018-12-22T07:49:07.839Z,87.59
2018-12-22T07:50:07.890Z,88.92
2018-12-22T07:51:07.851Z,88.51
2018-12-22T07:52:07.853Z,88.31
2018-12-22T07:53:07.810Z,88.82
2018-12-22T07:54:07.810Z,88.68
2018-12-22T07:55:07.773Z,89.64
2018-12-22T07:56:07.780Z,89.54
2018-12-22T07:57:07.779Z,90.06
2018-12-22T07:58:07.743Z,90.36
2018-12-22T07:59:07.746Z,90.47
2018-12-22T08:00:07.764Z,90.16
2018-12-22T08:01:07.799Z,90.57
2018-12-22T08:02:07.713Z,90.47
2018-12-22T08:03:07.786Z,91.02
2018-12-22T08:04:07.674Z,91.08
2018-12-22T08:05:07.671Z,91.02
2018-12-22T08:06:07.699Z,91.80
2018-12-22T08:07:07.653Z,91.39
2018-12-22T08:08:07.637Z,91.91
2018-12-22T08:09:07.638Z,91.80
2018-12-22T08:10:07.648Z,91.19
2018-12-22T08:11:07.611Z,91.70
2018-12-22T08:12:07.593Z,91.49
2018-12-22T08:13:07.613Z,91.29
2018-12-22T08:14:07.576Z,91.29
2018-12-22T08:15:07.581Z,91.19
2018-12-22T08:16:07.556Z,91.49
2018-12-22T08:17:07.534Z,91.80
2018-12-22T08:18:07.541Z,91.91
2018-12-22T08:19:07.532Z,90.88
2018-12-22T08:20:07.526Z,91.80
2018-12-22T08:21:07.490Z,91.49
2018-12-22T08:22:08.590Z,92.11
2018-12-22T08:23:07.488Z,91.70
2018-12-22T08:24:07.486Z,92.16
2018-12-22T08:25:07.498Z,92.01
2018-12-22T08:26:07.478Z,91.80
2018-12-22T08:27:07.454Z,91.70
2018-12-22T08:28:07.420Z,92.11
2018-12-22T08:29:07.400Z,91.80
2018-12-22T08:30:07.391Z,91.91
2018-12-22T08:31:07.409Z,92.11
2018-12-22T08:32:07.392Z,92.11
2018-12-22T08:33:07.424Z,92.21
2018-12-22T08:34:07.383Z,92.21
2018-12-22T08:35:07.344Z,91.80
2018-12-22T08:36:07.366Z,91.80
2018-12-22T08:37:07.333Z,91.91
2018-12-22T08:38:07.332Z,92.83
2018-12-22T08:39:07.300Z,92.32
2018-12-22T08:40:07.298Z,92.93
2018-12-22T08:41:07.293Z,92.21
2018-12-22T08:42:07.315Z,92.42
2018-12-22T08:43:07.263Z,92.42
2018-12-22T08:44:07.268Z,93.04
2018-12-22T08:45:07.230Z,92.93
2018-12-22T08:46:07.255Z,92.73
2018-12-22T08:47:07.225Z,92.77
2018-12-22T08:48:07.203Z,92.93
2018-12-22T08:49:07.209Z,93.14
2018-12-22T08:50:09.394Z,93.14
2018-12-22T08:51:07.167Z,92.63
2018-12-22T08:52:07.159Z,92.93
2018-12-22T08:53:07.137Z,92.73
2018-12-22T08:54:07.146Z,93.04
2018-12-22T08:55:07.138Z,92.11
2018-12-22T08:56:07.114Z,92.32
2018-12-22T08:57:07.102Z,92.73
2018-12-22T08:58:07.091Z,92.73
2018-12-22T08:59:07.071Z,92.52
2018-12-22T09:00:07.095Z,92.42
2018-12-22T09:01:07.069Z,93.04
2018-12-22T09:02:07.049Z,92.73
2018-12-22T09:03:07.034Z,92.63
2018-12-22T09:04:07.025Z,92.69
2018-12-22T09:05:07.013Z,92.89
2018-12-22T09:06:07.085Z,92.52
2018-12-22T09:07:07.016Z,92.32
2018-12-22T09:08:06.985Z,92.38
2018-12-22T09:09:06.964Z,92.63
2018-12-22T09:10:06.957Z,92.73
2018-12-22T09:11:06.992Z,92.01
2018-12-22T09:12:06.933Z,92.42
2018-12-22T09:13:06.927Z,92.21
2018-12-22T09:14:06.947Z,93.04
2018-12-22T09:15:06.899Z,92.83
2018-12-22T09:16:06.926Z,92.73
2018-12-22T09:17:06.877Z,92.52
2018-12-22T09:18:06.865Z,92.93
2018-12-22T09:19:06.883Z,92.93
2018-12-22T09:20:06.884Z,92.83
2018-12-22T09:21:06.844Z,92.83
2018-12-22T09:22:06.836Z,93.04
2018-12-22T09:23:06.814Z,92.93
2018-12-22T09:24:06.822Z,92.83
2018-12-22T09:25:06.825Z,92.83
2018-12-22T09:26:08.503Z,92.32
2018-12-22T09:27:06.778Z,92.63
2018-12-22T09:28:06.758Z,92.42
2018-12-22T09:29:06.746Z,92.67
2018-12-22T09:30:06.771Z,92.73
2018-12-22T09:31:06.724Z,92.73
2018-12-22T09:32:06.712Z,92.93
2018-12-22T09:33:06.717Z,92.83
2018-12-22T09:34:13.257Z,92.93
2018-12-22T09:35:07.724Z,92.83
2018-12-22T09:36:06.685Z,92.42
2018-12-22T09:37:07.010Z,92.52
2018-12-22T09:38:06.644Z,92.77
2018-12-22T09:39:06.634Z,92.63
2018-12-22T09:40:06.644Z,92.93
2018-12-22T09:41:06.671Z,92.77
2018-12-22T09:42:06.599Z,93.18
2018-12-22T09:43:06.602Z,92.87
2018-12-22T09:44:06.593Z,92.87
2018-12-22T09:45:06.605Z,93.08
2018-12-22T09:46:06.555Z,92.16
2018-12-22T09:47:06.556Z,91.74
2018-12-22T09:48:06.541Z,90.30
2018-12-22T09:49:06.536Z,89.38
2018-12-22T09:50:06.540Z,89.17
2018-12-22T09:51:06.504Z,89.69
2018-12-22T09:52:06.499Z,89.48
2018-12-22T09:53:06.509Z,89.28
2018-12-22T09:54:06.496Z,88.56
2018-12-22T09:55:06.522Z,89.28
2018-12-22T09:56:06.515Z,89.28
2018-12-22T09:57:06.438Z,89.28
2018-12-22T09:58:06.433Z,89.58
2018-12-22T09:59:06.615Z,89.73
2018-12-22T10:00:06.451Z,89.52
2018-12-22T10:01:09.404Z,90.14
2018-12-22T10:02:06.401Z,90.66
2018-12-22T10:03:06.368Z,90.55
2018-12-22T10:04:06.364Z,90.66
2018-12-22T10:05:06.378Z,90.55
2018-12-22T10:06:06.335Z,90.86
2018-12-22T10:07:06.379Z,90.55
2018-12-22T10:08:06.453Z,90.66
2018-12-22T10:09:06.301Z,90.55
2018-12-22T10:10:06.296Z,91.17
2018-12-22T10:11:06.314Z,91.78
2018-12-22T10:12:06.279Z,90.55
2018-12-22T10:13:06.270Z,89.52
2018-12-22T10:14:06.250Z,90.69
2018-12-22T10:15:06.308Z,90.75
2018-12-22T10:16:06.289Z,90.69
2018-12-22T10:17:06.295Z,90.18
2018-12-22T10:18:06.204Z,90.49
2018-12-22T10:19:06.202Z,90.69
2018-12-22T10:20:06.183Z,90.24
2018-12-22T10:21:06.226Z,90.49
2018-12-22T10:22:06.220Z,89.67
2018-12-22T10:23:06.157Z,90.59
2018-12-22T10:24:06.140Z,90.49
2018-12-22T10:25:06.152Z,90.28
2018-12-22T10:26:06.144Z,90.18
2018-12-22T10:27:06.154Z,89.40
2018-12-22T10:28:06.153Z,89.61
2018-12-22T10:29:06.094Z,90.73
2018-12-22T10:30:06.104Z,90.43
2018-12-22T10:31:06.105Z,90.53
2018-12-22T10:32:06.070Z,90.73
2018-12-22T10:33:06.062Z,90.43
2018-12-22T10:34:06.073Z,90.53
2018-12-22T10:35:06.017Z,89.91
2018-12-22T10:36:06.035Z,90.53
2018-12-22T10:37:06.014Z,89.71
2018-12-22T10:38:05.999Z,89.50
2018-12-22T10:39:05.990Z,90.26
2018-12-22T10:40:05.980Z,90.43
2018-12-22T10:41:05.987Z,90.33
2018-12-22T10:42:05.944Z,90.33
2018-12-22T10:43:05.945Z,90.43
2018-12-22T10:44:05.927Z,89.71
2018-12-22T10:45:05.920Z,89.61
2018-12-22T10:46:05.915Z,89.75
2018-12-22T10:47:05.902Z,90.26
2018-12-22T10:48:05.889Z,90.84
2018-12-22T10:49:05.894Z,90.47
2018-12-22T10:50:05.858Z,89.75
2018-12-22T10:51:05.930Z,89.95
2018-12-22T10:52:05.867Z,90.26
2018-12-22T10:53:05.822Z,90.78
2018-12-22T10:54:05.818Z,89.95
2018-12-22T10:55:05.811Z,89.65
2018-12-22T10:56:05.830Z,89.65
2018-12-22T10:57:05.784Z,88.92
2018-12-22T10:58:05.776Z,88.92
2018-12-22T10:59:05.761Z,89.03
2018-12-22T11:00:05.750Z,88.92
2018-12-22T11:01:05.764Z,87.90
2018-12-22T11:02:05.758Z,87.90
2018-12-22T11:03:05.711Z,88.31
2018-12-22T11:04:05.702Z,87.85
2018-12-22T11:05:05.694Z,88.06
2018-12-22T11:06:05.749Z,87.79
2018-12-22T11:07:05.695Z,87.96
2018-12-22T11:08:05.662Z,87.54
2018-12-22T11:09:05.657Z,86.45
2018-12-22T11:10:05.642Z,86.66
2018-12-22T11:11:05.627Z,86.45
2018-12-22T11:12:05.668Z,86.80
2018-12-22T11:13:05.638Z,86.49
2018-12-22T11:14:05.628Z,86.80
2018-12-22T11:15:05.585Z,86.76
2018-12-22T11:16:05.596Z,87.17
2018-12-22T11:17:05.613Z,86.87
2018-12-22T11:18:05.576Z,87.27
2018-12-22T11:19:05.541Z,87.17
2018-12-22T11:20:05.526Z,87.69
2018-12-22T11:21:05.526Z,87.79
2018-12-22T11:22:05.505Z,87.69
2018-12-22T11:23:05.517Z,88.20
2018-12-22T11:24:05.497Z,87.90
2018-12-22T11:25:05.487Z,88.51
2018-12-22T11:26:05.470Z,89.13
2018-12-22T11:27:05.473Z,87.99
2018-12-22T11:28:05.493Z,88.82
2018-12-22T11:29:05.453Z,88.92
2018-12-22T11:30:05.420Z,89.23
2018-12-22T11:31:05.417Z,88.92
2018-12-22T11:32:05.441Z,88.72
2018-12-22T11:33:05.429Z,89.54
2018-12-22T11:34:05.417Z,87.99
2018-12-22T11:35:05.364Z,88.31
2018-12-22T11:36:05.391Z,88.10
2018-12-22T11:37:05.353Z,88.20
2018-12-22T11:38:05.350Z,87.90
2018-12-22T11:39:05.362Z,87.69
2018-12-22T11:40:05.312Z,87.90
2018-12-22T11:41:05.297Z,89.03
2018-12-22T11:42:05.283Z,89.44
2018-12-22T11:43:05.302Z,89.34
2018-12-22T11:44:05.283Z,89.54
2018-12-22T11:45:05.263Z,88.78
2018-12-22T11:46:05.252Z,89.03
2018-12-22T11:47:05.257Z,88.17
2018-12-22T11:48:05.229Z,86.93
2018-12-22T11:49:05.216Z,86.82
2018-12-22T11:50:05.201Z,86.82
2018-12-22T11:51:05.193Z,86.97
2018-12-22T11:52:05.211Z,86.87
2018-12-22T11:53:05.169Z,86.76
2018-12-22T11:54:05.158Z,87.13
2018-12-22T11:55:05.190Z,87.48
2018-12-22T11:56:05.132Z,87.59
2018-12-22T11:57:05.168Z,86.97
2018-12-22T11:58:05.132Z,86.24
2018-12-22T11:59:05.111Z,86.24
2018-12-22T12:00:05.089Z,87.07
2018-12-22T12:01:05.084Z,86.24
2018-12-22T12:02:09.501Z,86.45
2018-12-22T12:03:06.058Z,85.73
2018-12-22T12:04:05.052Z,85.01
2018-12-22T12:05:05.034Z,85.31
2018-12-22T12:06:05.054Z,85.01
2018-12-22T12:07:05.063Z,85.63
2018-12-22T12:08:04.999Z,84.70
2018-12-22T12:09:04.991Z,85.01
2018-12-22T12:10:05.002Z,85.01
2018-12-22T12:11:04.996Z,85.01
2018-12-22T12:12:05.006Z,86.24
2018-12-22T12:13:04.954Z,85.01
2018-12-22T12:14:04.937Z,85.05
2018-12-22T12:15:04.943Z,86.29
2018-12-22T12:16:04.925Z,85.67
2018-12-22T12:17:04.924Z,86.39
2018-12-22T12:18:04.916Z,87.01
2018-12-22T12:19:04.909Z,86.80
2018-12-22T12:20:04.915Z,86.18
2018-12-22T12:21:04.869Z,86.70
2018-12-22T12:22:04.849Z,86.22
2018-12-22T12:23:04.860Z,86.53
2018-12-22T12:24:04.832Z,86.63
2018-12-22T12:25:04.837Z,86.94
2018-12-22T12:26:04.806Z,87.26
2018-12-22T12:27:04.798Z,87.35
2018-12-22T12:28:04.829Z,87.66
2018-12-22T12:29:04.784Z,87.71
2018-12-22T12:30:04.776Z,87.71
2018-12-22T12:31:04.758Z,88.95
2018-12-22T12:32:04.741Z,89.15
2018-12-22T12:33:04.749Z,88.84
2018-12-22T12:34:04.723Z,89.87
2018-12-22T12:35:04.719Z,89.05
2018-12-22T12:36:04.721Z,89.25
2018-12-22T12:37:04.687Z,88.84
2018-12-22T12:38:04.731Z,89.56
2018-12-22T12:39:04.664Z,89.77
2018-12-22T12:40:04.691Z,89.56
2018-12-22T12:41:04.681Z,89.77
2018-12-22T12:42:04.645Z,89.77
2018-12-22T12:43:04.672Z,89.56
2018-12-22T12:44:04.607Z,89.56
2018-12-22T12:45:04.601Z,89.56
2018-12-22T12:46:04.584Z,90.08
2018-12-22T12:47:04.576Z,90.28
2018-12-22T12:48:04.567Z,89.67
2018-12-22T12:49:04.575Z,89.56
2018-12-22T12:50:04.563Z,88.59
2018-12-22T12:51:04.588Z,87.81
2018-12-22T12:52:04.525Z,89.25